sensor_id;sensor_type;location;lat;lon;timestamp;pressure;altitude;pressure_sealevel;temperature;humidity
4767;BME280;2397;53.576;9.746;2023-04-04T00:02:20;103241.94;;;1.50;66.74
4767;BME280;2397;53.576;9.746;2023-04-04T00:04:46;103227.22;;;1.47;66.51
4767;BME280;2397;53.576;9.746;2023-04-04T00:07:13;103226.47;;;1.42;66.50
4767;BME280;2397;53.576;9.746;2023-04-04T00:09:40;103223.00;;;1.42;66.28
4767;BME280;2397;53.576;9.746;2023-04-04T00:12:06;103225.59;;;1.42;67.00
4767;BME280;2397;53.576;9.746;2023-04-04T00:14:33;103227.41;;;1.38;67.02
4767;BME280;2397;53.576;9.746;2023-04-04T00:16:59;103217.84;;;1.40;67.54
4767;BME280;2397;53.576;9.746;2023-04-04T00:19:26;103215.25;;;1.40;66.83
4767;BME280;2397;53.576;9.746;2023-04-04T00:21:52;103212.75;;;1.36;67.30
4767;BME280;2397;53.576;9.746;2023-04-04T00:24:20;103208.47;;;1.33;67.24
4767;BME280;2397;53.576;9.746;2023-04-04T00:26:47;103211.16;;;1.29;67.88
4767;BME280;2397;53.576;9.746;2023-04-04T00:29:13;103213.78;;;1.27;67.98
4767;BME280;2397;53.576;9.746;2023-04-04T00:31:40;103215.47;;;1.30;67.66
4767;BME280;2397;53.576;9.746;2023-04-04T00:34:07;103212.03;;;1.29;67.63
4767;BME280;2397;53.576;9.746;2023-04-04T00:36:34;103208.59;;;1.27;67.55
4767;BME280;2397;53.576;9.746;2023-04-04T00:39:00;103210.41;;;1.24;68.16
4767;BME280;2397;53.576;9.746;2023-04-04T00:41:27;103207.00;;;1.20;67.79
4767;BME280;2397;53.576;9.746;2023-04-04T00:43:54;103205.25;;;1.21;67.76
4767;BME280;2397;53.576;9.746;2023-04-04T00:46:21;103203.50;;;1.21;68.32
4767;BME280;2397;53.576;9.746;2023-04-04T00:48:50;103200.06;;;1.21;67.25
4767;BME280;2397;53.576;9.746;2023-04-04T00:51:17;103200.28;;;1.09;67.79
4767;BME280;2397;53.576;9.746;2023-04-04T00:53:45;103205.66;;;1.01;68.11
4767;BME280;2397;53.576;9.746;2023-04-04T00:56:12;103202.19;;;1.01;68.33
4767;BME280;2397;53.576;9.746;2023-04-04T00:58:41;103202.41;;;0.90;68.93
4767;BME280;2397;53.576;9.746;2023-04-04T01:01:09;103197.97;;;0.95;69.46
4767;BME280;2397;53.576;9.746;2023-04-04T01:03:39;103193.59;;;0.97;68.53
4767;BME280;2397;53.576;9.746;2023-04-04T01:06:07;103193.59;;;0.97;68.94
4767;BME280;2397;53.576;9.746;2023-04-04T01:08:36;103191.03;;;0.96;69.05
4767;BME280;2397;53.576;9.746;2023-04-04T01:11:04;103195.63;;;0.83;69.01
4767;BME280;2397;53.576;9.746;2023-04-04T01:13:32;103194.78;;;0.81;68.99
4767;BME280;2397;53.576;9.746;2023-04-04T01:15:59;103192.13;;;0.84;69.26
4767;BME280;2397;53.576;9.746;2023-04-04T01:18:27;103193.72;;;0.91;68.84
4767;BME280;2397;53.576;9.746;2023-04-04T01:21:02;103189.38;;;0.93;69.00
4767;BME280;2397;53.576;9.746;2023-04-04T01:23:35;103180.56;;;1.00;68.86
4767;BME280;2397;53.576;9.746;2023-04-04T01:26:10;103179.72;;;0.98;68.58
4767;BME280;2397;53.576;9.746;2023-04-04T01:28:37;103165.03;;;0.96;68.81
4767;BME280;2397;53.576;9.746;2023-04-04T01:31:11;103157.38;;;0.88;69.08
4767;BME280;2397;53.576;9.746;2023-04-04T01:33:45;103159.16;;;0.86;69.07
4767;BME280;2397;53.576;9.746;2023-04-04T01:36:36;103157.47;;;0.85;69.32
4767;BME280;2397;53.576;9.746;2023-04-04T01:39:21;103160.94;;;0.84;69.57
4767;BME280;2397;53.576;9.746;2023-04-04T01:41:49;103140.91;;;0.89;69.32
4767;BME280;2397;53.576;9.746;2023-04-04T01:44:16;103140.13;;;0.84;69.11
4767;BME280;2397;53.576;9.746;2023-04-04T01:46:45;103139.31;;;0.84;69.83
4767;BME280;2397;53.576;9.746;2023-04-04T01:49:11;103147.22;;;0.78;69.74
4767;BME280;2397;53.576;9.746;2023-04-04T01:51:39;103147.25;;;0.76;69.25
4767;BME280;2397;53.576;9.746;2023-04-04T01:54:06;103150.75;;;0.74;69.07
4767;BME280;2397;53.576;9.746;2023-04-04T01:56:33;103149.91;;;0.72;70.16
4767;BME280;2397;53.576;9.746;2023-04-04T01:59:00;103138.63;;;0.74;70.24
4767;BME280;2397;53.576;9.746;2023-04-04T02:01:27;103137.00;;;0.70;70.27
4767;BME280;2397;53.576;9.746;2023-04-04T02:03:53;103132.69;;;0.68;70.37
4767;BME280;2397;53.576;9.746;2023-04-04T02:06:20;103143.03;;;0.69;69.49
4767;BME280;2397;53.576;9.746;2023-04-04T02:08:47;103134.56;;;0.60;70.01
4767;BME280;2397;53.576;9.746;2023-04-04T02:11:14;103133.88;;;0.52;70.98
4767;BME280;2397;53.576;9.746;2023-04-04T02:13:41;103127.00;;;0.49;70.31
4767;BME280;2397;53.576;9.746;2023-04-04T02:16:12;103131.16;;;0.58;70.92
4767;BME280;2397;53.576;9.746;2023-04-04T02:18:38;103137.19;;;0.58;70.58
4767;BME280;2397;53.576;9.746;2023-04-04T02:21:06;103124.41;;;0.49;71.05
4767;BME280;2397;53.576;9.746;2023-04-04T02:23:33;103125.16;;;0.54;71.33
4767;BME280;2397;53.576;9.746;2023-04-04T02:25:59;103128.66;;;0.53;70.54
4767;BME280;2397;53.576;9.746;2023-04-04T02:28:27;103130.34;;;0.54;70.79
4767;BME280;2397;53.576;9.746;2023-04-04T02:30:54;103132.84;;;0.60;70.94
4767;BME280;2397;53.576;9.746;2023-04-04T02:33:20;103133.75;;;0.59;70.96
4767;BME280;2397;53.576;9.746;2023-04-04T02:35:48;103124.16;;;0.61;70.83
4767;BME280;2397;53.576;9.746;2023-04-04T02:38:15;103119.91;;;0.57;71.23
4767;BME280;2397;53.576;9.746;2023-04-04T02:40:44;103125.06;;;0.60;71.13
4767;BME280;2397;53.576;9.746;2023-04-04T02:43:11;103126.81;;;0.58;70.48
4767;BME280;2397;53.576;9.746;2023-04-04T02:45:38;103123.34;;;0.59;70.48
4767;BME280;2397;53.576;9.746;2023-04-04T02:48:24;103118.03;;;0.64;70.28
4767;BME280;2397;53.576;9.746;2023-04-04T02:50:54;103120.66;;;0.62;70.72
4767;BME280;2397;53.576;9.746;2023-04-04T02:53:21;103115.56;;;0.59;70.72
4767;BME280;2397;53.576;9.746;2023-04-04T02:55:50;103120.78;;;0.58;71.11
4767;BME280;2397;53.576;9.746;2023-04-04T02:58:17;103120.66;;;0.62;70.79
4767;BME280;2397;53.576;9.746;2023-04-04T03:00:43;103118.06;;;0.62;70.87
4767;BME280;2397;53.576;9.746;2023-04-04T03:03:12;103121.50;;;0.64;70.58
4767;BME280;2397;53.576;9.746;2023-04-04T03:05:43;103128.34;;;0.68;70.73
4767;BME280;2397;53.576;9.746;2023-04-04T03:08:09;103128.28;;;0.71;71.02
4767;BME280;2397;53.576;9.746;2023-04-04T03:10:36;103128.34;;;0.68;70.60
4767;BME280;2397;53.576;9.746;2023-04-04T03:13:02;103128.47;;;0.62;71.35
4767;BME280;2397;53.576;9.746;2023-04-04T03:15:32;103127.66;;;0.60;71.11
4767;BME280;2397;53.576;9.746;2023-04-04T03:17:58;103121.66;;;0.55;71.83
4767;BME280;2397;53.576;9.746;2023-04-04T03:20:27;103117.28;;;0.59;71.73
4767;BME280;2397;53.576;9.746;2023-04-04T03:22:53;103115.38;;;0.67;71.15
4767;BME280;2397;53.576;9.746;2023-04-04T03:25:20;103113.72;;;0.64;71.21
4767;BME280;2397;53.576;9.746;2023-04-04T03:27:46;103115.69;;;0.52;71.33
4767;BME280;2397;53.576;9.746;2023-04-04T03:30:19;103110.53;;;0.49;71.88
4767;BME280;2397;53.576;9.746;2023-04-04T03:32:46;103113.22;;;0.44;71.86
4767;BME280;2397;53.576;9.746;2023-04-04T03:35:13;103118.31;;;0.50;72.67
4767;BME280;2397;53.576;9.746;2023-04-04T03:37:39;103117.28;;;0.59;71.64
4767;BME280;2397;53.576;9.746;2023-04-04T03:40:08;103119.84;;;0.60;72.00
4767;BME280;2397;53.576;9.746;2023-04-04T03:42:34;103113.72;;;0.63;71.87
4767;BME280;2397;53.576;9.746;2023-04-04T03:45:06;103109.25;;;0.69;71.61
4767;BME280;2397;53.576;9.746;2023-04-04T03:47:35;103108.41;;;0.70;71.45
4767;BME280;2397;53.576;9.746;2023-04-04T03:50:01;103109.22;;;0.71;71.29
4767;BME280;2397;53.576;9.746;2023-04-04T03:52:30;103115.31;;;0.70;71.74
4767;BME280;2397;53.576;9.746;2023-04-04T03:54:57;103099.81;;;0.65;71.28
4767;BME280;2397;53.576;9.746;2023-04-04T03:57:25;103106.84;;;0.62;71.30
4767;BME280;2397;53.576;9.746;2023-04-04T03:59:52;103107.63;;;0.65;70.93
4767;BME280;2397;53.576;9.746;2023-04-04T04:02:20;103106.66;;;0.69;71.55
4767;BME280;2397;53.576;9.746;2023-04-04T04:04:47;103098.88;;;0.69;71.72
4767;BME280;2397;53.576;9.746;2023-04-04T04:07:13;103102.34;;;0.70;71.22
4767;BME280;2397;53.576;9.746;2023-04-04T04:09:40;103091.97;;;0.68;71.08
4767;BME280;2397;53.576;9.746;2023-04-04T04:12:07;103096.28;;;0.69;71.29
4767;BME280;2397;53.576;9.746;2023-04-04T04:14:34;103098.00;;;0.70;71.33
4767;BME280;2397;53.576;9.746;2023-04-04T04:17:01;103097.31;;;0.61;71.38
4767;BME280;2397;53.576;9.746;2023-04-04T04:19:28;103091.28;;;0.60;71.80
4767;BME280;2397;53.576;9.746;2023-04-04T04:21:55;103098.16;;;0.63;71.26
4767;BME280;2397;53.576;9.746;2023-04-04T04:24:21;103101.59;;;0.65;71.86
4767;BME280;2397;53.576;9.746;2023-04-04T04:26:48;103103.31;;;0.64;71.82
4767;BME280;2397;53.576;9.746;2023-04-04T04:29:15;103103.19;;;0.70;72.09
4767;BME280;2397;53.576;9.746;2023-04-04T04:31:42;103099.59;;;0.76;71.36
4767;BME280;2397;53.576;9.746;2023-04-04T04:34:09;103100.50;;;0.73;71.38
4767;BME280;2397;53.576;9.746;2023-04-04T04:36:37;103103.13;;;0.72;71.08
4767;BME280;2397;53.576;9.746;2023-04-04T04:39:16;103106.84;;;0.62;71.36
4767;BME280;2397;53.576;9.746;2023-04-04T04:41:55;103105.91;;;0.64;71.41
4767;BME280;2397;53.576;9.746;2023-04-04T04:44:23;103097.16;;;0.68;71.40
4767;BME280;2397;53.576;9.746;2023-04-04T04:46:53;103106.47;;;0.80;70.68
4767;BME280;2397;53.576;9.746;2023-04-04T04:49:19;103111.56;;;0.83;71.27
4767;BME280;2397;53.576;9.746;2023-04-04T04:51:47;103105.72;;;0.73;71.27
4767;BME280;2397;53.576;9.746;2023-04-04T04:54:15;103115.25;;;0.74;71.79
4767;BME280;2397;53.576;9.746;2023-04-04T04:56:43;103112.69;;;0.71;71.15
4767;BME280;2397;53.576;9.746;2023-04-04T04:59:10;103103.13;;;0.73;71.57
4767;BME280;2397;53.576;9.746;2023-04-04T05:01:41;103098.81;;;0.72;71.86
4767;BME280;2397;53.576;9.746;2023-04-04T05:04:08;103103.13;;;0.73;70.69
4767;BME280;2397;53.576;9.746;2023-04-04T05:06:41;103109.16;;;0.75;71.28
4767;BME280;2397;53.576;9.746;2023-04-04T05:09:09;103111.72;;;0.77;71.28
4767;BME280;2397;53.576;9.746;2023-04-04T05:11:37;103102.91;;;0.84;71.29
4767;BME280;2397;53.576;9.746;2023-04-04T05:14:05;103109.78;;;0.86;71.09
4767;BME280;2397;53.576;9.746;2023-04-04T05:16:42;103098.56;;;0.83;70.68
4767;BME280;2397;53.576;9.746;2023-04-04T05:19:09;103107.16;;;0.88;71.55
4767;BME280;2397;53.576;9.746;2023-04-04T05:21:42;103104.41;;;0.94;71.04
4767;BME280;2397;53.576;9.746;2023-04-04T05:24:14;103110.53;;;0.91;71.40
4767;BME280;2397;53.576;9.746;2023-04-04T05:26:42;103107.28;;;0.82;71.13
4767;BME280;2397;53.576;9.746;2023-04-04T05:29:09;103111.53;;;0.84;71.58
4767;BME280;2397;53.576;9.746;2023-04-04T05:31:39;103111.31;;;0.96;71.54
4767;BME280;2397;53.576;9.746;2023-04-04T05:34:14;103106.78;;;1.04;71.41
4767;BME280;2397;53.576;9.746;2023-04-04T05:36:40;103099.09;;;1.00;71.11
4767;BME280;2397;53.576;9.746;2023-04-04T05:39:08;103106.31;;;0.86;71.46
4767;BME280;2397;53.576;9.746;2023-04-04T05:41:42;103107.31;;;0.80;72.01
4767;BME280;2397;53.576;9.746;2023-04-04T05:44:13;103103.69;;;0.87;72.30
4767;BME280;2397;53.576;9.746;2023-04-04T05:46:41;103108.94;;;0.84;71.83
4767;BME280;2397;53.576;9.746;2023-04-04T05:49:08;103113.91;;;0.96;71.85
4767;BME280;2397;53.576;9.746;2023-04-04T05:51:39;103117.31;;;0.98;73.03
4767;BME280;2397;53.576;9.746;2023-04-04T05:54:09;103113.19;;;0.88;72.87
4767;BME280;2397;53.576;9.746;2023-04-04T05:56:37;103124.22;;;0.99;72.43
4767;BME280;2397;53.576;9.746;2023-04-04T05:59:09;103114.53;;;1.07;71.97
4767;BME280;2397;53.576;9.746;2023-04-04T06:01:48;103117.25;;;1.01;71.93
4767;BME280;2397;53.576;9.746;2023-04-04T06:04:15;103113.06;;;0.94;72.63
4767;BME280;2397;53.576;9.746;2023-04-04T06:06:42;103112.09;;;1.00;72.54
4767;BME280;2397;53.576;9.746;2023-04-04T06:09:09;103112.75;;;1.09;72.06
4767;BME280;2397;53.576;9.746;2023-04-04T06:11:36;103112.78;;;1.08;72.41
4767;BME280;2397;53.576;9.746;2023-04-04T06:14:06;103113.69;;;1.05;72.20
4767;BME280;2397;53.576;9.746;2023-04-04T06:16:34;103106.75;;;1.07;72.06
4767;BME280;2397;53.576;9.746;2023-04-04T06:19:01;103113.91;;;0.96;72.46
4767;BME280;2397;53.576;9.746;2023-04-04T06:21:28;103121.84;;;0.89;73.81
4767;BME280;2397;53.576;9.746;2023-04-04T06:23:55;103125.81;;;1.06;72.91
4767;BME280;2397;53.576;9.746;2023-04-04T06:26:22;103121.91;;;1.25;72.46
4767;BME280;2397;53.576;9.746;2023-04-04T06:28:50;103114.47;;;1.48;72.17
4767;BME280;2397;53.576;9.746;2023-04-04T06:31:21;103116.91;;;1.54;71.86
4767;BME280;2397;53.576;9.746;2023-04-04T06:33:50;103116.84;;;1.57;72.02
4767;BME280;2397;53.576;9.746;2023-04-04T06:36:19;103119.22;;;1.66;72.20
4767;BME280;2397;53.576;9.746;2023-04-04T06:38:46;103119.09;;;1.71;71.81
4767;BME280;2397;53.576;9.746;2023-04-04T06:41:16;103116.25;;;1.81;71.69
4767;BME280;2397;53.576;9.746;2023-04-04T06:43:44;103116.22;;;1.83;71.26
4767;BME280;2397;53.576;9.746;2023-04-04T06:46:12;103109.63;;;2.03;71.49
4767;BME280;2397;53.576;9.746;2023-04-04T06:48:38;103115.38;;;2.16;70.06
4767;BME280;2397;53.576;9.746;2023-04-04T06:51:05;103114.25;;;2.24;69.39
4767;BME280;2397;53.576;9.746;2023-04-04T06:53:33;103110.44;;;2.37;69.79
4767;BME280;2397;53.576;9.746;2023-04-04T06:56:00;103115.06;;;2.58;65.57
4767;BME280;2397;53.576;9.746;2023-04-04T06:58:27;103099.72;;;2.77;64.75
4767;BME280;2397;53.576;9.746;2023-04-04T07:00:53;103101.84;;;2.93;64.40
4767;BME280;2397;53.576;9.746;2023-04-04T07:03:21;103104.28;;;2.99;62.65
4767;BME280;2397;53.576;9.746;2023-04-04T07:05:49;103095.31;;;3.08;61.24
4767;BME280;2397;53.576;9.746;2023-04-04T07:08:16;103104.25;;;3.28;59.86
4767;BME280;2397;53.576;9.746;2023-04-04T07:10:42;103095.31;;;3.35;59.98
4767;BME280;2397;53.576;9.746;2023-04-04T07:13:09;103089.91;;;3.41;58.15
4767;BME280;2397;53.576;9.746;2023-04-04T07:15:36;103092.78;;;3.34;57.16
4767;BME280;2397;53.576;9.746;2023-04-04T07:18:02;103099.97;;;3.53;57.63
4767;BME280;2397;53.576;9.746;2023-04-04T07:20:29;103097.66;;;3.71;58.95
4767;BME280;2397;53.576;9.746;2023-04-04T07:22:55;103087.78;;;3.80;56.51
4767;BME280;2397;53.576;9.746;2023-04-04T07:25:22;103091.34;;;3.78;55.79
4767;BME280;2397;53.576;9.746;2023-04-04T07:27:48;103086.81;;;3.83;55.11
4767;BME280;2397;53.576;9.746;2023-04-04T07:30:20;103086.25;;;3.99;56.18
4767;BME280;2397;53.576;9.746;2023-04-04T07:32:58;103088.81;;;4.01;55.34
4767;BME280;2397;53.576;9.746;2023-04-04T07:35:25;103095.69;;;4.28;56.05
4767;BME280;2397;53.576;9.746;2023-04-04T07:37:52;103080.66;;;4.10;55.81
4767;BME280;2397;53.576;9.746;2023-04-04T07:40:19;103097.75;;;4.43;58.13
4767;BME280;2397;53.576;9.746;2023-04-04T07:42:47;103094.72;;;4.55;55.75
4767;BME280;2397;53.576;9.746;2023-04-04T07:45:17;103090.91;;;4.86;56.03
4767;BME280;2397;53.576;9.746;2023-04-04T07:47:44;103092.28;;;5.18;54.33
4767;BME280;2397;53.576;9.746;2023-04-04T07:50:12;103093.09;;;4.97;52.55
4767;BME280;2397;53.576;9.746;2023-04-04T07:52:39;103088.63;;;5.00;52.90
4767;BME280;2397;53.576;9.746;2023-04-04T07:55:07;103096.59;;;5.19;52.79
4767;BME280;2397;53.576;9.746;2023-04-04T07:57:37;103090.06;;;5.30;52.77
4767;BME280;2397;53.576;9.746;2023-04-04T08:00:07;103082.41;;;5.46;53.30
4767;BME280;2397;53.576;9.746;2023-04-04T08:02:42;103077.34;;;5.43;51.11
4767;BME280;2397;53.576;9.746;2023-04-04T08:05:09;103075.13;;;5.54;51.64
4767;BME280;2397;53.576;9.746;2023-04-04T08:07:35;103071.06;;;5.67;50.28
4767;BME280;2397;53.576;9.746;2023-04-04T08:10:02;103072.19;;;5.18;51.15
4767;BME280;2397;53.576;9.746;2023-04-04T08:12:29;103073.22;;;5.14;51.40
4767;BME280;2397;53.576;9.746;2023-04-04T08:14:55;103077.13;;;5.47;50.63
4767;BME280;2397;53.576;9.746;2023-04-04T08:17:22;103072.06;;;5.64;50.28
4767;BME280;2397;53.576;9.746;2023-04-04T08:19:48;103066.59;;;5.27;49.99
4767;BME280;2397;53.576;9.746;2023-04-04T08:22:15;103067.56;;;5.46;48.56
4767;BME280;2397;53.576;9.746;2023-04-04T08:24:42;103065.38;;;5.99;47.93
4767;BME280;2397;53.576;9.746;2023-04-04T08:27:08;103063.78;;;5.53;46.49
4767;BME280;2397;53.576;9.746;2023-04-04T08:29:35;103061.22;;;5.52;47.39
4767;BME280;2397;53.576;9.746;2023-04-04T08:32:01;103062.94;;;5.53;46.68
4767;BME280;2397;53.576;9.746;2023-04-04T08:34:28;103052.91;;;5.21;48.62
4767;BME280;2397;53.576;9.746;2023-04-04T08:36:55;103046.38;;;5.31;46.72
4767;BME280;2397;53.576;9.746;2023-04-04T08:39:21;103054.66;;;4.99;47.47
4767;BME280;2397;53.576;9.746;2023-04-04T08:41:55;103061.97;;;4.91;48.66
4767;BME280;2397;53.576;9.746;2023-04-04T08:44:24;103054.41;;;5.05;47.89
4767;BME280;2397;53.576;9.746;2023-04-04T08:46:51;103044.38;;;5.37;47.97
4767;BME280;2397;53.576;9.746;2023-04-04T08:49:20;103052.03;;;5.42;47.81
4767;BME280;2397;53.576;9.746;2023-04-04T08:51:50;103051.81;;;5.68;48.61
4767;BME280;2397;53.576;9.746;2023-04-04T08:54:18;103045.84;;;6.06;46.84
4767;BME280;2397;53.576;9.746;2023-04-04T08:56:46;103050.97;;;5.89;44.91
4767;BME280;2397;53.576;9.746;2023-04-04T08:59:12;103047.59;;;5.44;43.93
4767;BME280;2397;53.576;9.746;2023-04-04T09:01:41;103044.69;;;5.71;45.26
4767;BME280;2397;53.576;9.746;2023-04-04T09:04:07;103037.13;;;6.05;44.81
4767;BME280;2397;53.576;9.746;2023-04-04T09:06:35;103043.44;;;5.81;43.94
4767;BME280;2397;53.576;9.746;2023-04-04T09:09:02;103039.63;;;5.67;44.99
4767;BME280;2397;53.576;9.746;2023-04-04T09:11:30;103032.47;;;5.72;45.12
4767;BME280;2397;53.576;9.746;2023-04-04T09:13:57;103030.97;;;5.86;43.49
4767;BME280;2397;53.576;9.746;2023-04-04T09:16:25;103039.28;;;5.76;44.96
4767;BME280;2397;53.576;9.746;2023-04-04T09:18:51;103034.22;;;5.71;44.39
4767;BME280;2397;53.576;9.746;2023-04-04T09:21:18;103028.75;;;5.97;45.10
4767;BME280;2397;53.576;9.746;2023-04-04T09:23:45;103019.97;;;5.98;43.48
4767;BME280;2397;53.576;9.746;2023-04-04T09:26:12;103023.44;;;5.99;43.74
4767;BME280;2397;53.576;9.746;2023-04-04T09:28:38;103021.41;;;6.05;42.82
4767;BME280;2397;53.576;9.746;2023-04-04T09:31:06;103020.59;;;6.23;43.66
4767;BME280;2397;53.576;9.746;2023-04-04T09:33:33;103015.41;;;6.42;43.68
4767;BME280;2397;53.576;9.746;2023-04-04T09:36:06;103015.88;;;6.68;44.54
4767;BME280;2397;53.576;9.746;2023-04-04T09:38:39;103009.25;;;6.97;42.52
4767;BME280;2397;53.576;9.746;2023-04-04T09:41:13;103002.38;;;6.94;42.51
4767;BME280;2397;53.576;9.746;2023-04-04T09:43:43;103011.41;;;7.25;45.07
4767;BME280;2397;53.576;9.746;2023-04-04T09:46:10;103006.13;;;7.43;42.61
4767;BME280;2397;53.576;9.746;2023-04-04T09:48:36;103007.91;;;7.60;42.91
4767;BME280;2397;53.576;9.746;2023-04-04T09:51:05;102993.50;;;7.16;41.31
4767;BME280;2397;53.576;9.746;2023-04-04T09:53:33;102999.97;;;7.08;41.84
4767;BME280;2397;53.576;9.746;2023-04-04T09:56:01;102998.59;;;6.83;42.43
4767;BME280;2397;53.576;9.746;2023-04-04T09:58:29;103002.19;;;6.62;43.25
4767;BME280;2397;53.576;9.746;2023-04-04T10:00:59;103003.66;;;6.86;42.65
4767;BME280;2397;53.576;9.746;2023-04-04T10:03:28;103003.31;;;6.75;43.58
4767;BME280;2397;53.576;9.746;2023-04-04T10:08:23;102992.41;;;6.65;43.35
4767;BME280;2397;53.576;9.746;2023-04-04T10:10:50;102988.81;;;6.68;43.45
4767;BME280;2397;53.576;9.746;2023-04-04T10:13:36;102984.59;;;7.01;43.55
4767;BME280;2397;53.576;9.746;2023-04-04T10:16:06;102988.22;;;7.16;42.86
4767;BME280;2397;53.576;9.746;2023-04-04T10:18:34;102983.81;;;6.99;42.11
4767;BME280;2397;53.576;9.746;2023-04-04T10:21:05;102987.56;;;7.29;43.46
4767;BME280;2397;53.576;9.746;2023-04-04T10:23:36;102983.88;;;7.50;42.32
4767;BME280;2397;53.576;9.746;2023-04-04T10:26:03;102983.69;;;7.36;41.78
4767;BME280;2397;53.576;9.746;2023-04-04T10:28:30;102980.88;;;7.05;40.59
4767;BME280;2397;53.576;9.746;2023-04-04T10:31:22;102983.91;;;7.32;41.18
4767;BME280;2397;53.576;9.746;2023-04-04T10:36:41;102978.75;;;7.47;40.72
4767;BME280;2397;53.576;9.746;2023-04-04T10:39:28;102980.44;;;7.14;42.75
4767;BME280;2397;53.576;9.746;2023-04-04T10:41:57;102979.44;;;7.51;41.40
4767;BME280;2397;53.576;9.746;2023-04-04T10:44:32;102964.31;;;7.56;41.37
4767;BME280;2397;53.576;9.746;2023-04-04T10:47:19;102967.19;;;7.68;41.40
4767;BME280;2397;53.576;9.746;2023-04-04T10:49:49;102964.75;;;7.47;40.86
4767;BME280;2397;53.576;9.746;2023-04-04T10:52:18;102959.13;;;7.71;42.83
4767;BME280;2397;53.576;9.746;2023-04-04T10:54:45;102961.28;;;7.80;41.23
4767;BME280;2397;53.576;9.746;2023-04-04T10:57:13;102955.94;;;8.14;40.08
4767;BME280;2397;53.576;9.746;2023-04-04T11:00:00;102951.22;;;8.69;38.53
4767;BME280;2397;53.576;9.746;2023-04-04T11:05:14;102945.44;;;9.52;39.37
4767;BME280;2397;53.576;9.746;2023-04-04T11:07:44;102946.31;;;9.95;37.19
4767;BME280;2397;53.576;9.746;2023-04-04T11:13:07;102939.03;;;8.66;38.18
4767;BME280;2397;53.576;9.746;2023-04-04T11:16:10;102947.97;;;9.54;39.73
4767;BME280;2397;53.576;9.746;2023-04-04T11:26:33;102920.72;;;10.66;34.41
4767;BME280;2397;53.576;9.746;2023-04-04T11:29:05;102918.59;;;10.44;36.75
4767;BME280;2397;53.576;9.746;2023-04-04T11:31:41;102903.75;;;10.29;35.70
4767;BME280;2397;53.576;9.746;2023-04-04T11:34:28;102907.66;;;10.77;34.89
4767;BME280;2397;53.576;9.746;2023-04-04T11:36:55;102894.47;;;10.77;33.09
4767;BME280;2397;53.576;9.746;2023-04-04T11:39:27;102882.63;;;10.82;33.82
4767;BME280;2397;53.576;9.746;2023-04-04T11:42:11;102884.59;;;10.93;33.60
4767;BME280;2397;53.576;9.746;2023-04-04T11:47:18;102877.53;;;10.67;31.94
4767;BME280;2397;53.576;9.746;2023-04-04T11:49:45;102888.34;;;10.35;32.24
4767;BME280;2397;53.576;9.746;2023-04-04T11:52:15;102886.13;;;10.01;35.44
4767;BME280;2397;53.576;9.746;2023-04-04T11:54:43;102888.66;;;10.03;34.83
4767;BME280;2397;53.576;9.746;2023-04-04T11:57:11;102877.56;;;9.70;34.54
4767;BME280;2397;53.576;9.746;2023-04-04T11:59:38;102867.47;;;9.76;34.86
4767;BME280;2397;53.576;9.746;2023-04-04T12:02:07;102877.06;;;9.91;36.19
4767;BME280;2397;53.576;9.746;2023-04-04T12:04:35;102868.31;;;9.77;35.10
4767;BME280;2397;53.576;9.746;2023-04-04T12:07:06;102861.53;;;9.45;33.42
4767;BME280;2397;53.576;9.746;2023-04-04T12:09:33;102865.94;;;9.58;35.51
4767;BME280;2397;53.576;9.746;2023-04-04T12:12:00;102861.56;;;9.87;34.26
4767;BME280;2397;53.576;9.746;2023-04-04T12:14:27;102851.66;;;9.90;32.69
4767;BME280;2397;53.576;9.746;2023-04-04T12:16:55;102847.97;;;9.79;28.60
4767;BME280;2397;53.576;9.746;2023-04-04T12:19:23;102849.00;;;10.04;29.83
4767;BME280;2397;53.576;9.746;2023-04-04T12:21:50;102847.91;;;10.08;29.26
4767;BME280;2397;53.576;9.746;2023-04-04T12:24:18;102848.78;;;10.21;29.36
4767;BME280;2397;53.576;9.746;2023-04-04T12:26:46;102844.13;;;10.12;30.11
4767;BME280;2397;53.576;9.746;2023-04-04T12:29:15;102835.97;;;10.56;29.49
4767;BME280;2397;53.576;9.746;2023-04-04T12:31:44;102838.97;;;11.16;28.81
4767;BME280;2397;53.576;9.746;2023-04-04T12:34:22;102833.91;;;11.38;27.67
4767;BME280;2397;53.576;9.746;2023-04-04T12:36:54;102836.88;;;11.33;28.33
4767;BME280;2397;53.576;9.746;2023-04-04T12:39:22;102828.09;;;11.08;27.90
4767;BME280;2397;53.576;9.746;2023-04-04T12:41:58;102832.66;;;11.43;28.20
4767;BME280;2397;53.576;9.746;2023-04-04T12:46:56;102825.09;;;10.61;28.78
4767;BME280;2397;53.576;9.746;2023-04-04T12:49:29;102816.94;;;10.78;30.08
4767;BME280;2397;53.576;9.746;2023-04-04T12:51:57;102808.59;;;10.45;27.97
4767;BME280;2397;53.576;9.746;2023-04-04T12:54:31;102805.44;;;10.52;29.67
4767;BME280;2397;53.576;9.746;2023-04-04T12:57:01;102808.25;;;10.76;30.26
4767;BME280;2397;53.576;9.746;2023-04-04T12:59:30;102800.03;;;10.80;29.00
4767;BME280;2397;53.576;9.746;2023-04-04T13:02:00;102805.22;;;10.82;28.96
4767;BME280;2397;53.576;9.746;2023-04-04T13:04:27;102802.00;;;10.77;29.21
4767;BME280;2397;53.576;9.746;2023-04-04T13:06:54;102800.25;;;10.90;30.02
4767;BME280;2397;53.576;9.746;2023-04-04T13:09:22;102806.94;;;10.95;31.22
4767;BME280;2397;53.576;9.746;2023-04-04T13:17:23;102785.25;;;10.78;29.88
4767;BME280;2397;53.576;9.746;2023-04-04T13:19:50;102786.13;;;11.16;30.87
4767;BME280;2397;53.576;9.746;2023-04-04T13:22:17;102779.88;;;11.04;29.85
4767;BME280;2397;53.576;9.746;2023-04-04T13:24:43;102771.22;;;11.15;30.43
4767;BME280;2397;53.576;9.746;2023-04-04T13:27:10;102773.00;;;11.02;28.95
4767;BME280;2397;53.576;9.746;2023-04-04T13:29:36;102777.44;;;11.14;30.34
4767;BME280;2397;53.576;9.746;2023-04-04T13:32:03;102775.56;;;10.64;29.33
4767;BME280;2397;53.576;9.746;2023-04-04T13:34:30;102774.91;;;10.87;31.18
4767;BME280;2397;53.576;9.746;2023-04-04T13:36:56;102759.97;;;10.61;28.66
4767;BME280;2397;53.576;9.746;2023-04-04T13:39:23;102754.31;;;10.41;29.95
4767;BME280;2397;53.576;9.746;2023-04-04T13:41:50;102758.41;;;10.84;31.05
4767;BME280;2397;53.576;9.746;2023-04-04T13:44:16;102757.69;;;10.94;29.75
4767;BME280;2397;53.576;9.746;2023-04-04T13:46:43;102752.59;;;10.79;30.02
4767;BME280;2397;53.576;9.746;2023-04-04T13:49:09;102755.44;;;10.88;29.69
4767;BME280;2397;53.576;9.746;2023-04-04T13:51:36;102744.91;;;11.01;28.79
4767;BME280;2397;53.576;9.746;2023-04-04T13:54:03;102743.25;;;11.48;28.64
4767;BME280;2397;53.576;9.746;2023-04-04T13:56:29;102732.59;;;11.25;27.90
4767;BME280;2397;53.576;9.746;2023-04-04T13:58:56;102729.03;;;11.26;29.27